sensor_id;sensor_type;location;lat;lon;timestamp;pressure;altitude;pressure_sealevel;temperature;humidity
70445;BME280;57902;49.638;11.070;2022-10-13T00:00:57;98865.50;;;8.96;100.00
70445;BME280;57902;49.638;11.070;2022-10-13T00:03:24;98856.94;;;8.93;100.00
70445;BME280;57902;49.638;11.070;2022-10-13T00:05:50;98856.16;;;8.88;100.00
70445;BME280;57902;49.638;11.070;2022-10-13T00:08:20;98855.31;;;8.86;100.00
70445;BME280;57902;49.638;11.070;2022-10-13T00:10:48;98861.34;;;8.82;100.00
70445;BME280;57902;49.638;11.070;2022-10-13T00:13:15;98866.53;;;8.79;100.00
70445;BME280;57902;49.638;11.070;2022-10-13T00:15:43;98862.28;;;8.78;100.00
70445;BME280;57902;49.638;11.070;2022-10-13T00:18:11;98861.47;;;8.74;100.00
70445;BME280;57902;49.638;11.070;2022-10-13T00:20:47;98864.16;;;8.65;100.00
70445;BME280;57902;49.638;11.070;2022-10-13T00:23:14;98859.06;;;8.62;100.00
70445;BME280;57902;49.638;11.070;2022-10-13T00:25:43;98856.56;;;8.57;100.00
70445;BME280;57902;49.638;11.070;2022-10-13T00:28:10;98858.31;;;8.52;100.00
70445;BME280;57902;49.638;11.070;2022-10-13T00:30:37;98853.25;;;8.48;100.00
70445;BME280;57902;49.638;11.070;2022-10-13T00:33:04;98855.81;;;8.46;100.00
70445;BME280;57902;49.638;11.070;2022-10-13T00:35:31;98848.16;;;8.40;100.00
70445;BME280;57902;49.638;11.070;2022-10-13T00:37:57;98847.31;;;8.38;100.00
70445;BME280;57902;49.638;11.070;2022-10-13T00:40:24;98850.78;;;8.35;100.00
70445;BME280;57902;49.638;11.070;2022-10-13T00:42:50;98851.63;;;8.37;100.00
70445;BME280;57902;49.638;11.070;2022-10-13T00:45:25;98861.88;;;8.37;100.00
70445;BME280;57902;49.638;11.070;2022-10-13T00:47:54;98855.13;;;8.29;100.00
70445;BME280;57902;49.638;11.070;2022-10-13T00:50:26;98855.97;;;8.31;100.00
70445;BME280;57902;49.638;11.070;2022-10-13T00:52:55;98857.66;;;8.33;100.00
70445;BME280;57902;49.638;11.070;2022-10-13T00:55:25;98864.50;;;8.34;100.00
70445;BME280;57902;49.638;11.070;2022-10-13T00:57:55;98863.63;;;8.34;100.00
70445;BME280;57902;49.638;11.070;2022-10-13T01:00:31;98862.78;;;8.33;100.00
70445;BME280;57902;49.638;11.070;2022-10-13T01:02:58;98867.94;;;8.32;100.00
70445;BME280;57902;49.638;11.070;2022-10-13T01:12:32;98873.94;;;8.31;100.00
70445;BME280;57902;49.638;11.070;2022-10-13T01:17:51;98878.28;;;8.27;100.00
70445;BME280;57902;49.638;11.070;2022-10-13T01:20:26;98876.59;;;8.24;100.00
70445;BME280;57902;49.638;11.070;2022-10-13T01:23:17;98876.53;;;8.28;100.00
70445;BME280;57902;49.638;11.070;2022-10-13T01:32:09;98870.66;;;8.19;100.00
70445;BME280;57902;49.638;11.070;2022-10-13T01:34:51;98866.38;;;8.20;100.00
70445;BME280;57902;49.638;11.070;2022-10-13T01:37:25;98862.06;;;8.20;100.00
70445;BME280;57902;49.638;11.070;2022-10-13T01:40:23;98862.94;;;8.21;100.00
70445;BME280;57902;49.638;11.070;2022-10-13T01:43:04;98849.19;;;8.22;100.00
70445;BME280;57902;49.638;11.070;2022-10-13T01:45:46;98854.31;;;8.23;100.00
70445;BME280;57902;49.638;11.070;2022-10-13T01:48:15;98845.78;;;8.23;100.00
70445;BME280;57902;49.638;11.070;2022-10-13T01:50:43;98840.63;;;8.24;100.00
70445;BME280;57902;49.638;11.070;2022-10-13T01:53:11;98847.47;;;8.26;100.00
70445;BME280;57902;49.638;11.070;2022-10-13T01:55:52;98837.19;;;8.27;100.00
70445;BME280;57902;49.638;11.070;2022-10-13T01:58:19;98832.03;;;8.29;100.00
70445;BME280;57902;49.638;11.070;2022-10-13T02:00:57;98833.75;;;8.28;100.00
70445;BME280;57902;49.638;11.070;2022-10-13T02:03:35;98838.00;;;8.28;100.00
70445;BME280;57902;49.638;11.070;2022-10-13T02:06:12;98832.84;;;8.29;100.00
70445;BME280;57902;49.638;11.070;2022-10-13T02:08:43;98829.41;;;8.32;100.00
70445;BME280;57902;49.638;11.070;2022-10-13T02:11:16;98829.38;;;8.35;100.00
70445;BME280;57902;49.638;11.070;2022-10-13T02:13:53;98822.47;;;8.40;100.00
70445;BME280;57902;49.638;11.070;2022-10-13T02:16:23;98817.25;;;8.48;100.00
70445;BME280;57902;49.638;11.070;2022-10-13T02:18:51;98814.63;;;8.54;100.00
70445;BME280;57902;49.638;11.070;2022-10-13T02:21:18;98817.13;;;8.58;100.00
70445;BME280;57902;49.638;11.070;2022-10-13T02:23:44;98811.06;;;8.64;100.00
70445;BME280;57902;49.638;11.070;2022-10-13T02:26:11;98799.75;;;8.76;100.00
70445;BME280;57902;49.638;11.070;2022-10-13T02:28:39;98801.31;;;8.86;100.00
70445;BME280;57902;49.638;11.070;2022-10-13T02:31:09;98802.88;;;8.98;100.00
70445;BME280;57902;49.638;11.070;2022-10-13T02:33:35;98805.34;;;9.03;100.00
70445;BME280;57902;49.638;11.070;2022-10-13T02:36:02;98809.53;;;9.10;100.00
70445;BME280;57902;49.638;11.070;2022-10-13T02:38:29;98818.88;;;9.17;100.00
70445;BME280;57902;49.638;11.070;2022-10-13T02:40:56;98811.09;;;9.20;100.00
70445;BME280;57902;49.638;11.070;2022-10-13T02:43:22;98814.50;;;9.24;100.00
70445;BME280;57902;49.638;11.070;2022-10-13T02:45:49;98807.56;;;9.27;100.00
70445;BME280;57902;49.638;11.070;2022-10-13T02:48:15;98804.97;;;9.29;100.00
70445;BME280;57902;49.638;11.070;2022-10-13T02:50:41;98797.91;;;9.42;100.00
70445;BME280;57902;49.638;11.070;2022-10-13T02:53:08;98797.91;;;9.42;100.00
70445;BME280;57902;49.638;11.070;2022-10-13T02:55:34;98806.44;;;9.44;100.00
70445;BME280;57902;49.638;11.070;2022-10-13T02:58:01;98804.78;;;9.41;100.00
70445;BME280;57902;49.638;11.070;2022-10-13T03:00:27;98802.19;;;9.43;100.00
70445;BME280;57902;49.638;11.070;2022-10-13T03:02:53;98796.22;;;9.39;100.00
70445;BME280;57902;49.638;11.070;2022-10-13T03:05:20;98797.19;;;9.32;100.00
70445;BME280;57902;49.638;11.070;2022-10-13T03:07:46;98797.22;;;9.31;100.00
70445;BME280;57902;49.638;11.070;2022-10-13T03:10:13;98797.31;;;9.24;100.00
70445;BME280;57902;49.638;11.070;2022-10-13T03:12:39;98799.13;;;9.19;100.00
70445;BME280;57902;49.638;11.070;2022-10-13T03:15:06;98802.53;;;9.20;100.00
70445;BME280;57902;49.638;11.070;2022-10-13T03:17:33;98800.75;;;9.25;100.00
70445;BME280;57902;49.638;11.070;2022-10-13T03:19:59;98801.50;;;9.32;100.00
70445;BME280;57902;49.638;11.070;2022-10-13T03:22:26;98803.13;;;9.37;100.00
70445;BME280;57902;49.638;11.070;2022-10-13T03:24:52;98798.69;;;9.47;100.00
70445;BME280;57902;49.638;11.070;2022-10-13T03:27:18;98805.50;;;9.48;100.00
70445;BME280;57902;49.638;11.070;2022-10-13T03:29:45;98800.31;;;9.51;100.00
70445;BME280;57902;49.638;11.070;2022-10-13T03:32:12;98796.81;;;9.55;100.00
70445;BME280;57902;49.638;11.070;2022-10-13T03:34:38;98800.16;;;9.60;100.00
70445;BME280;57902;49.638;11.070;2022-10-13T03:37:05;98798.41;;;9.62;100.00
70445;BME280;57902;49.638;11.070;2022-10-13T03:39:31;98801.00;;;9.61;100.00
70445;BME280;57902;49.638;11.070;2022-10-13T03:41:58;98798.47;;;9.59;100.00
70445;BME280;57902;49.638;11.070;2022-10-13T03:44:24;98796.72;;;9.60;100.00
70445;BME280;57902;49.638;11.070;2022-10-13T03:46:51;98801.91;;;9.58;100.00
70445;BME280;57902;49.638;11.070;2022-10-13T03:49:18;98803.59;;;9.61;100.00
70445;BME280;57902;49.638;11.070;2022-10-13T03:51:44;98799.31;;;9.60;100.00
70445;BME280;57902;49.638;11.070;2022-10-13T03:54:11;98786.34;;;9.64;100.00
70445;BME280;57902;49.638;11.070;2022-10-13T03:56:38;98793.03;;;9.76;100.00
70445;BME280;57902;49.638;11.070;2022-10-13T03:59:05;98784.31;;;9.82;100.00
70445;BME280;57902;49.638;11.070;2022-10-13T04:01:32;98785.09;;;9.87;100.00
70445;BME280;57902;49.638;11.070;2022-10-13T04:04:01;98783.22;;;9.94;100.00
70445;BME280;57902;49.638;11.070;2022-10-13T04:06:28;98794.34;;;9.97;100.00
70445;BME280;57902;49.638;11.070;2022-10-13T04:08:55;98783.97;;;10.01;100.00
70445;BME280;57902;49.638;11.070;2022-10-13T04:11:22;98778.69;;;10.07;100.00
70445;BME280;57902;49.638;11.070;2022-10-13T04:13:49;98780.28;;;10.14;100.00
70445;BME280;57902;49.638;11.070;2022-10-13T04:16:18;98780.28;;;10.14;100.00
70445;BME280;57902;49.638;11.070;2022-10-13T04:21:21;98785.31;;;10.20;100.00
70445;BME280;57902;49.638;11.070;2022-10-13T04:23:49;98780.88;;;10.27;100.00
70445;BME280;57902;49.638;11.070;2022-10-13T04:26:17;98775.75;;;10.27;100.00
70445;BME280;57902;49.638;11.070;2022-10-13T04:28:52;98778.28;;;10.28;100.00
70445;BME280;57902;49.638;11.070;2022-10-13T04:31:20;98777.34;;;10.34;100.00
70445;BME280;57902;49.638;11.070;2022-10-13T04:33:48;98784.88;;;10.43;100.00
70445;BME280;57902;49.638;11.070;2022-10-13T04:36:15;98776.31;;;10.43;100.00
70445;BME280;57902;49.638;11.070;2022-10-13T04:38:42;98776.31;;;10.43;100.00
70445;BME280;57902;49.638;11.070;2022-10-13T04:41:09;98774.47;;;10.48;100.00
70445;BME280;57902;49.638;11.070;2022-10-13T04:43:36;98767.50;;;10.53;100.00
70445;BME280;57902;49.638;11.070;2022-10-13T04:46:08;98766.63;;;10.54;100.00
70445;BME280;57902;49.638;11.070;2022-10-13T04:48:35;98769.03;;;10.62;100.00
70445;BME280;57902;49.638;11.070;2022-10-13T04:51:03;98762.13;;;10.62;100.00
70445;BME280;57902;49.638;11.070;2022-10-13T04:53:31;98758.75;;;10.60;100.00
70445;BME280;57902;49.638;11.070;2022-10-13T04:56:03;98759.59;;;10.61;100.00
70445;BME280;57902;49.638;11.070;2022-10-13T04:58:31;98755.34;;;10.58;100.00
70445;BME280;57902;49.638;11.070;2022-10-13T05:00:58;98756.16;;;10.60;100.00
70445;BME280;57902;49.638;11.070;2022-10-13T05:03:27;98750.25;;;10.55;100.00
70445;BME280;57902;49.638;11.070;2022-10-13T05:05:54;98751.97;;;10.56;100.00
70445;BME280;57902;49.638;11.070;2022-10-13T05:08:20;98752.72;;;10.60;100.00
70445;BME280;57902;49.638;11.070;2022-10-13T05:10:57;98749.47;;;10.52;100.00
70445;BME280;57902;49.638;11.070;2022-10-13T05:13:24;98753.72;;;10.54;100.00
70445;BME280;57902;49.638;11.070;2022-10-13T05:15:51;98745.16;;;10.52;100.00
70445;BME280;57902;49.638;11.070;2022-10-13T05:18:18;98748.59;;;10.53;100.00
70445;BME280;57902;49.638;11.070;2022-10-13T05:20:44;98746.94;;;10.50;100.00
70445;BME280;57902;49.638;11.070;2022-10-13T05:23:12;98748.56;;;10.54;100.00
70445;BME280;57902;49.638;11.070;2022-10-13T05:25:39;98745.97;;;10.56;100.00
70445;BME280;57902;49.638;11.070;2022-10-13T05:28:07;98748.50;;;10.57;100.00
70445;BME280;57902;49.638;11.070;2022-10-13T05:30:34;98755.41;;;10.55;100.00
70445;BME280;57902;49.638;11.070;2022-10-13T05:33:00;98753.63;;;10.59;100.00
70445;BME280;57902;49.638;11.070;2022-10-13T05:35:27;98751.00;;;10.60;100.00
70445;BME280;57902;49.638;11.070;2022-10-13T05:37:53;98751.06;;;10.59;100.00
70445;BME280;57902;49.638;11.070;2022-10-13T05:40:20;98755.31;;;10.60;100.00
70445;BME280;57902;49.638;11.070;2022-10-13T05:42:49;98752.66;;;10.63;100.00
70445;BME280;57902;49.638;11.070;2022-10-13T05:45:17;98757.81;;;10.64;100.00
70445;BME280;57902;49.638;11.070;2022-10-13T05:47:44;98760.41;;;10.61;100.00
70445;BME280;57902;49.638;11.070;2022-10-13T05:50:11;98752.59;;;10.66;100.00
70445;BME280;57902;49.638;11.070;2022-10-13T05:52:37;98761.28;;;10.62;100.00
70445;BME280;57902;49.638;11.070;2022-10-13T05:55:04;98761.22;;;10.65;100.00
70445;BME280;57902;49.638;11.070;2022-10-13T05:57:36;98757.72;;;10.67;100.00
70445;BME280;57902;49.638;11.070;2022-10-13T06:00:08;98761.97;;;10.68;100.00
70445;BME280;57902;49.638;11.070;2022-10-13T06:02:40;98773.09;;;10.72;100.00
70445;BME280;57902;49.638;11.070;2022-10-13T06:05:12;98768.78;;;10.73;100.00
70445;BME280;57902;49.638;11.070;2022-10-13T06:07:40;98767.91;;;10.74;100.00
70445;BME280;57902;49.638;11.070;2022-10-13T06:10:08;98773.84;;;10.76;100.00
70445;BME280;57902;49.638;11.070;2022-10-13T06:12:35;98763.53;;;10.76;100.00
70445;BME280;57902;49.638;11.070;2022-10-13T06:15:02;98755.97;;;10.70;100.00
70445;BME280;57902;49.638;11.070;2022-10-13T06:17:29;98755.88;;;10.73;100.00
70445;BME280;57902;49.638;11.070;2022-10-13T06:19:55;98756.72;;;10.73;100.00
70445;BME280;57902;49.638;11.070;2022-10-13T06:22:22;98761.78;;;10.78;100.00
70445;BME280;57902;49.638;11.070;2022-10-13T06:24:48;98768.69;;;10.76;100.00
70445;BME280;57902;49.638;11.070;2022-10-13T06:27:15;98766.84;;;10.82;100.00
70445;BME280;57902;49.638;11.070;2022-10-13T06:29:41;98773.72;;;10.82;100.00
70445;BME280;57902;49.638;11.070;2022-10-13T06:32:08;98777.94;;;10.86;100.00
70445;BME280;57902;49.638;11.070;2022-10-13T06:34:34;98778.69;;;10.91;100.00
70445;BME280;57902;49.638;11.070;2022-10-13T06:37:00;98776.91;;;10.93;100.00
70445;BME280;57902;49.638;11.070;2022-10-13T06:39:27;98775.09;;;10.98;100.00
70445;BME280;57902;49.638;11.070;2022-10-13T06:41:53;98776.94;;;10.92;100.00
70445;BME280;57902;49.638;11.070;2022-10-13T06:44:20;98781.34;;;10.88;100.00
70445;BME280;57902;49.638;11.070;2022-10-13T06:46:47;98783.84;;;10.91;100.00
70445;BME280;57902;49.638;11.070;2022-10-13T06:49:13;98781.13;;;10.97;100.00
70445;BME280;57902;49.638;11.070;2022-10-13T06:51:40;98771.81;;;10.90;100.00
70445;BME280;57902;49.638;11.070;2022-10-13T06:54:06;98779.53;;;10.92;100.00
70445;BME280;57902;49.638;11.070;2022-10-13T06:56:33;98768.38;;;10.91;100.00
70445;BME280;57902;49.638;11.070;2022-10-13T06:58:59;98773.69;;;10.85;100.00
70445;BME280;57902;49.638;11.070;2022-10-13T07:01:25;98781.31;;;10.90;100.00
70445;BME280;57902;49.638;11.070;2022-10-13T07:03:52;98781.25;;;10.91;100.00
70445;BME280;57902;49.638;11.070;2022-10-13T07:06:18;98771.06;;;10.87;100.00
70445;BME280;57902;49.638;11.070;2022-10-13T07:08:45;98767.47;;;10.92;100.00
70445;BME280;57902;49.638;11.070;2022-10-13T07:11:13;98772.59;;;10.94;100.00
70445;BME280;57902;49.638;11.070;2022-10-13T07:13:42;98766.50;;;10.96;100.00
70445;BME280;57902;49.638;11.070;2022-10-13T07:16:13;98767.47;;;10.92;100.00
70445;BME280;57902;49.638;11.070;2022-10-13T07:18:39;98761.44;;;10.93;100.00
70445;BME280;57902;49.638;11.070;2022-10-13T07:21:06;98769.16;;;10.93;100.00
70445;BME280;57902;49.638;11.070;2022-10-13T07:23:35;98764.75;;;10.98;100.00
70445;BME280;57902;49.638;11.070;2022-10-13T07:26:06;98769.88;;;11.00;100.00
70445;BME280;57902;49.638;11.070;2022-10-13T07:28:33;98773.31;;;11.00;100.00
70445;BME280;57902;49.638;11.070;2022-10-13T07:30:59;98774.19;;;10.99;100.00
70445;BME280;57902;49.638;11.070;2022-10-13T07:33:26;98774.13;;;11.01;100.00
70445;BME280;57902;49.638;11.070;2022-10-13T07:35:52;98775.03;;;11.00;100.00
70445;BME280;57902;49.638;11.070;2022-10-13T07:38:18;98768.16;;;11.00;100.00
70445;BME280;57902;49.638;11.070;2022-10-13T07:40:45;98777.41;;;11.09;100.00
70445;BME280;57902;49.638;11.070;2022-10-13T07:43:11;98773.81;;;11.15;100.00
70445;BME280;57902;49.638;11.070;2022-10-13T07:45:38;98779.03;;;11.13;100.00
70445;BME280;57902;49.638;11.070;2022-10-13T07:48:05;98773.00;;;11.13;100.00
70445;BME280;57902;49.638;11.070;2022-10-13T07:50:31;98778.13;;;11.16;100.00
70445;BME280;57902;49.638;11.070;2022-10-13T07:52:58;98783.28;;;11.16;100.00
70445;BME280;57902;49.638;11.070;2022-10-13T07:55:24;98781.56;;;11.15;100.00
70445;BME280;57902;49.638;11.070;2022-10-13T07:57:51;98780.81;;;11.10;100.00
70445;BME280;57902;49.638;11.070;2022-10-13T08:00:17;98780.66;;;11.17;100.00
70445;BME280;57902;49.638;11.070;2022-10-13T08:02:44;98781.50;;;11.18;100.00
70445;BME280;57902;49.638;11.070;2022-10-13T08:05:14;98774.63;;;11.17;100.00
70445;BME280;57902;49.638;11.070;2022-10-13T08:07:40;98777.13;;;11.20;100.00
70445;BME280;57902;49.638;11.070;2022-10-13T08:10:07;98770.25;;;11.20;100.00
70445;BME280;57902;49.638;11.070;2022-10-13T08:12:35;98760.63;;;11.27;100.00
70445;BME280;57902;49.638;11.070;2022-10-13T08:15:02;98764.06;;;11.28;100.00
70445;BME280;57902;49.638;11.070;2022-10-13T08:17:32;98768.41;;;11.26;100.00
70445;BME280;57902;49.638;11.070;2022-10-13T08:19:58;98776.03;;;11.30;100.00
70445;BME280;57902;49.638;11.070;2022-10-13T08:22:25;98775.16;;;11.31;100.00
70445;BME280;57902;49.638;11.070;2022-10-13T08:24:53;98772.69;;;11.27;100.00
70445;BME280;57902;49.638;11.070;2022-10-13T08:27:23;98767.41;;;11.31;100.00
70445;BME280;57902;49.638;11.070;2022-10-13T08:30:10;98771.81;;;11.28;100.00
70445;BME280;57902;49.638;11.070;2022-10-13T08:32:36;98781.25;;;11.27;100.00
70445;BME280;57902;49.638;11.070;2022-10-13T08:35:03;98770.84;;;11.30;100.00
70445;BME280;57902;49.638;11.070;2022-10-13T08:37:30;98770.78;;;11.33;100.00
70445;BME280;57902;49.638;11.070;2022-10-13T08:39:56;98778.44;;;11.38;100.00
70445;BME280;57902;49.638;11.070;2022-10-13T08:42:23;98772.22;;;11.45;100.00
70445;BME280;57902;49.638;11.070;2022-10-13T08:44:53;98781.56;;;11.49;100.00
70445;BME280;57902;49.638;11.070;2022-10-13T08:47:46;98778.03;;;11.53;100.00
70445;BME280;57902;49.638;11.070;2022-10-13T08:50:17;98787.34;;;11.59;100.00
70445;BME280;57902;49.638;11.070;2022-10-13T08:52:49;98781.50;;;11.52;100.00
70445;BME280;57902;49.638;11.070;2022-10-13T08:55:31;98774.63;;;11.53;100.00
70445;BME280;57902;49.638;11.070;2022-10-13T08:58:01;98772.88;;;11.53;100.00
70445;BME280;57902;49.638;11.070;2022-10-13T09:00:28;98775.50;;;11.52;100.00
70445;BME280;57902;49.638;11.070;2022-10-13T09:06:08;98765.88;;;11.59;100.00
70445;BME280;57902;49.638;11.070;2022-10-13T09:08:43;98770.19;;;11.56;100.00
70445;BME280;57902;49.638;11.070;2022-10-13T09:11:12;98773.59;;;11.59;100.00
70445;BME280;57902;49.638;11.070;2022-10-13T09:13:38;98764.97;;;11.60;100.00
70445;BME280;57902;49.638;11.070;2022-10-13T09:16:06;98764.91;;;11.61;100.00
70445;BME280;57902;49.638;11.070;2022-10-13T09:18:33;98768.31;;;11.63;100.00
70445;BME280;57902;49.638;11.070;2022-10-13T09:21:16;98767.53;;;11.60;100.00
70445;BME280;57902;49.638;11.070;2022-10-13T09:23:44;98765.75;;;11.63;100.00
70445;BME280;57902;49.638;11.070;2022-10-13T09:26:18;98758.69;;;11.68;100.00
70445;BME280;57902;49.638;11.070;2022-10-13T09:28:45;98758.66;;;11.70;100.00
70445;BME280;57902;49.638;11.070;2022-10-13T09:33:44;98749.88;;;11.77;100.00
70445;BME280;57902;49.638;11.070;2022-10-13T09:36:13;98751.53;;;11.80;99.86
70445;BME280;57902;49.638;11.070;2022-10-13T09:38:43;98731.38;;;11.94;98.42
70445;BME280;57902;49.638;11.070;2022-10-13T09:41:16;98738.09;;;12.00;98.49
70445;BME280;57902;49.638;11.070;2022-10-13T09:46:24;98735.19;;;12.11;99.19
70445;BME280;57902;49.638;11.070;2022-10-13T09:48:53;98735.75;;;12.22;98.50
70445;BME280;57902;49.638;11.070;2022-10-13T09:53:59;98743.22;;;12.31;96.94
70445;BME280;57902;49.638;11.070;2022-10-13T09:56:32;98745.13;;;12.26;97.23
70445;BME280;57902;49.638;11.070;2022-10-13T09:59:26;98758.78;;;12.30;97.67
70445;BME280;57902;49.638;11.070;2022-10-13T10:01:57;98762.19;;;12.30;97.39
70445;BME280;57902;49.638;11.070;2022-10-13T10:04:32;98763.13;;;12.29;96.83
70445;BME280;57902;49.638;11.070;2022-10-13T10:07:08;98764.84;;;12.29;96.09
70445;BME280;57902;49.638;11.070;2022-10-13T10:09:58;98755.44;;;12.26;96.11
70445;BME280;57902;49.638;11.070;2022-10-13T10:12:29;98758.00;;;12.28;96.86
70445;BME280;57902;49.638;11.070;2022-10-13T10:14:56;98759.00;;;12.22;98.17
70445;BME280;57902;49.638;11.070;2022-10-13T10:17:59;98763.94;;;12.30;97.44
70445;BME280;57902;49.638;11.070;2022-10-13T10:20:40;98762.84;;;12.38;97.22
70445;BME280;57902;49.638;11.070;2022-10-13T10:26:03;98745.47;;;12.43;97.82
70445;BME280;57902;49.638;11.070;2022-10-13T10:28:47;98746.13;;;12.50;96.88
70445;BME280;57902;49.638;11.070;2022-10-13T10:39:35;98733.44;;;12.98;95.44
70445;BME280;57902;49.638;11.070;2022-10-13T10:45:19;98731.69;;;13.25;92.55
70445;BME280;57902;49.638;11.070;2022-10-13T10:47:51;98735.13;;;13.25;91.92
70445;BME280;57902;49.638;11.070;2022-10-13T10:50:19;98727.41;;;13.24;92.48
70445;BME280;57902;49.638;11.070;2022-10-13T10:53:01;98724.72;;;13.27;92.96
70445;BME280;57902;49.638;11.070;2022-10-13T10:55:36;98722.13;;;13.27;93.38
70445;BME280;57902;49.638;11.070;2022-10-13T11:00:50;98720.16;;;13.60;91.77
70445;BME280;57902;49.638;11.070;2022-10-13T11:03:29;98715.47;;;13.72;90.44
70445;BME280;57902;49.638;11.070;2022-10-13T11:06:20;98700.56;;;13.77;90.68
70445;BME280;57902;49.638;11.070;2022-10-13T11:08:48;98693.97;;;13.92;89.50
70445;BME280;57902;49.638;11.070;2022-10-13T11:54:20;98665.38;;;14.85;84.80
70445;BME280;57902;49.638;11.070;2022-10-13T11:56:50;98659.41;;;14.83;84.02
70445;BME280;57902;49.638;11.070;2022-10-13T11:59:35;98659.56;;;14.78;84.47
70445;BME280;57902;49.638;11.070;2022-10-13T12:02:13;98654.50;;;14.75;84.23
70445;BME280;57902;49.638;11.070;2022-10-13T12:05:18;98657.78;;;14.80;83.04
70445;BME280;57902;49.638;11.070;2022-10-13T12:07:45;98650.66;;;14.63;84.13
70445;BME280;57902;49.638;11.070;2022-10-13T12:10:17;98645.69;;;14.57;84.68
70445;BME280;57902;49.638;11.070;2022-10-13T12:12:47;98641.09;;;14.65;84.16
70445;BME280;57902;49.638;11.070;2022-10-13T12:15:35;98627.38;;;14.62;85.10
70445;BME280;57902;49.638;11.070;2022-10-13T12:18:20;98624.81;;;14.60;84.14
70445;BME280;57902;49.638;11.070;2022-10-13T12:20:54;98635.31;;;14.57;84.00
70445;BME280;57902;49.638;11.070;2022-10-13T12:23:21;98623.19;;;14.58;84.18
70445;BME280;57902;49.638;11.070;2022-10-13T12:25:49;98624.72;;;14.63;83.87
70445;BME280;57902;49.638;11.070;2022-10-13T12:28:21;98622.66;;;14.72;84.00
70445;BME280;57902;49.638;11.070;2022-10-13T12:30:54;98614.03;;;14.71;83.77
70445;BME280;57902;49.638;11.070;2022-10-13T12:33:30;98608.19;;;14.66;83.15
70445;BME280;57902;49.638;11.070;2022-10-13T12:36:17;98609.81;;;14.68;83.53
70445;BME280;57902;49.638;11.070;2022-10-13T12:38:52;98608.59;;;14.77;82.57
70445;BME280;57902;49.638;11.070;2022-10-13T12:41:24;98607.53;;;14.81;83.07
70445;BME280;57902;49.638;11.070;2022-10-13T12:43:52;98611.75;;;14.84;83.23
70445;BME280;57902;49.638;11.070;2022-10-13T12:46:41;98604.19;;;14.79;83.71
70445;BME280;57902;49.638;11.070;2022-10-13T12:49:14;98602.47;;;14.78;83.16
70445;BME280;57902;49.638;11.070;2022-10-13T12:51:43;98602.47;;;14.78;83.24
70445;BME280;57902;49.638;11.070;2022-10-13T12:54:18;98600.41;;;14.86;82.70
70445;BME280;57902;49.638;11.070;2022-10-13T12:56:46;98590.16;;;14.83;82.04
70445;BME280;57902;49.638;11.070;2022-10-13T12:59:17;98595.16;;;14.88;82.39
70445;BME280;57902;49.638;11.070;2022-10-13T13:01:45;98596.78;;;14.91;82.43
70445;BME280;57902;49.638;11.070;2022-10-13T13:07:01;98599.06;;;14.98;81.14
70445;BME280;57902;49.638;11.070;2022-10-13T13:09:32;98593.41;;;14.88;82.07
70445;BME280;57902;49.638;11.070;2022-10-13T13:12:26;98592.56;;;14.88;82.18
70445;BME280;57902;49.638;11.070;2022-10-13T13:14:51;98590.56;;;14.95;81.53
70445;BME280;57902;49.638;11.070;2022-10-13T13:17:23;98577.69;;;14.92;81.44
70445;BME280;57902;49.638;11.070;2022-10-13T13:20:28;98580.28;;;14.92;81.54
70445;BME280;57902;49.638;11.070;2022-10-13T13:22:56;98580.28;;;14.92;81.87
70445;BME280;57902;49.638;11.070;2022-10-13T13:25:23;98584.44;;;14.96;82.00
70445;BME280;57902;49.638;11.070;2022-10-13T13:27:50;98582.38;;;15.04;81.34
70445;BME280;57902;49.638;11.070;2022-10-13T13:30:19;98584.97;;;15.04;80.92
70445;BME280;57902;49.638;11.070;2022-10-13T13:32:46;98576.22;;;15.07;80.67
70445;BME280;57902;49.638;11.070;2022-10-13T13:35:13;98575.50;;;15.03;81.04
70445;BME280;57902;49.638;11.070;2022-10-13T13:37:43;98577.19;;;15.04;80.44
70445;BME280;57902;49.638;11.070;2022-10-13T13:40:15;98578.16;;;15.01;80.46
70445;BME280;57902;49.638;11.070;2022-10-13T13:42:42;98578.22;;;15.00;80.33
70445;BME280;57902;49.638;11.070;2022-10-13T13:45:13;98575.81;;;14.95;80.91
70445;BME280;57902;49.638;11.070;2022-10-13T13:47:40;98580.06;;;14.98;81.54
70445;BME280;57902;49.638;11.070;2022-10-13T13:50:16;98587.72;;;15.01;81.45
70445;BME280;57902;49.638;11.070;2022-10-13T13:52:44;98586.47;;;15.10;81.17
70445;BME280;57902;49.638;11.070;2022-10-13T13:55:10;98584.84;;;15.07;80.93
70445;BME280;57902;49.638;11.070;2022-10-13T13:57:37;98579.38;;;15.13;80.88
70445;BME280;57902;49.638;11.070;2022-10-13T14:00:04;98573.28;;;15.14;80.53
70445;BME280;57902;49.638;11.070;2022-10-13T14:02:31;98571.59;;;15.13;81.20
70445;BME280;57902;49.638;11.070;2022-10-13T14:04:57;98554.38;;;15.11;81.17
70445;BME280;57902;49.638;11.070;2022-10-13T14:07:24;98547.72;;;15.05;81.10
70445;BME280;57902;49.638;11.070;2022-10-13T14:09:50;98546.31;;;14.98;81.73
70445;BME280;57902;49.638;11.070;2022-10-13T14:12:19;98543.84;;;14.95;81.68
70445;BME280;57902;49.638;11.070;2022-10-13T14:14:45;98554.91;;;14.98;81.94
70445;BME280;57902;49.638;11.070;2022-10-13T14:17:12;98555.88;;;14.96;82.56
70445;BME280;57902;49.638;11.070;2022-10-13T14:19:40;98561.88;;;14.98;82.78
70445;BME280;57902;49.638;11.070;2022-10-13T14:22:07;98553.16;;;14.99;82.40
70445;BME280;57902;49.638;11.070;2022-10-13T14:24:34;98551.22;;;15.04;81.77
70445;BME280;57902;49.638;11.070;2022-10-13T14:27:01;98546.03;;;15.04;81.94
70445;BME280;57902;49.638;11.070;2022-10-13T14:29:27;98546.09;;;15.02;82.18
70445;BME280;57902;49.638;11.070;2022-10-13T14:31:54;98545.13;;;15.05;82.32